AVA5325 SKPE-SKBO
Flight info
| Callsign | AVA5325 |
|---|---|
| Flight time | 0h 26m |
| Altitude | 25000 |
| Route | TOLIM1D TOLIM TOLIM4E |
| Aircraft | A320/M-SDE3FGHIRWY/LB1 |
Departure
| Time | 2026-04-30 19:25 |
|---|---|
| Airport | Matecaña International Airport (SKPE) |
Arrival
| Time | 2026-04-30 19:52 |
|---|---|
| Airport | El Dorado International Airport (SKBO) |
| Time | Latitude | Longitude | Altitude | Speed | Heading |
|---|---|---|---|---|---|
| 2026-04-30 19:04 | 4.81502 | -75.73713 | 4427 ft | 0 kts | 342° |
| 2026-04-30 19:18 | 4.81483 | -75.73708 | 4428 ft | 4 kts | 355° |
| 2026-04-30 19:19 | 4.81458 | -75.73711 | 4429 ft | 4 kts | 37° |
| 2026-04-30 19:19 | 4.81447 | -75.73724 | 4428 ft | 0 kts | 73° |
| 2026-04-30 19:22 | 4.81469 | -75.73655 | 4427 ft | 5 kts | 71° |
| 2026-04-30 19:22 | 4.81510 | -75.73515 | 4428 ft | 8 kts | 87° |
| 2026-04-30 19:23 | 4.81439 | -75.73423 | 4429 ft | 14 kts | 78° |
| 2026-04-30 19:24 | 4.81523 | -75.73166 | 4428 ft | 13 kts | 71° |
| 2026-04-30 19:24 | 4.81560 | -75.73089 | 4428 ft | 12 kts | 48° |
| 2026-04-30 19:24 | 4.81533 | -75.73131 | 4428 ft | 34 kts | 249° |
| 2026-04-30 19:25 | 4.80692 | -75.75774 | 5353 ft | 174 kts | 253° |
| 2026-04-30 19:26 | 4.79923 | -75.78134 | 6399 ft | 194 kts | 249° |
| 2026-04-30 19:26 | 4.79035 | -75.80860 | 7246 ft | 210 kts | 251° |
| 2026-04-30 19:26 | 4.78303 | -75.82097 | 7696 ft | 212 kts | 217° |
| 2026-04-30 19:27 | 4.75327 | -75.82301 | 8129 ft | 245 kts | 163° |
| 2026-04-30 19:27 | 4.71821 | -75.81002 | 8841 ft | 285 kts | 158° |
| 2026-04-30 19:28 | 4.69986 | -75.80335 | 9511 ft | 290 kts | 162° |
| 2026-04-30 19:28 | 4.66018 | -75.79366 | 9979 ft | 295 kts | 168° |
| 2026-04-30 19:29 | 4.61892 | -75.78690 | 10207 ft | 318 kts | 171° |
| 2026-04-30 19:29 | 4.59631 | -75.78396 | 10513 ft | 335 kts | 172° |
| 2026-04-30 19:30 | 4.52605 | -75.77491 | 12545 ft | 342 kts | 171° |
| 2026-04-30 19:30 | 4.48107 | -75.76061 | 13768 ft | 347 kts | 147° |
| 2026-04-30 19:31 | 4.44874 | -75.72497 | 14888 ft | 351 kts | 116° |
| 2026-04-30 19:31 | 4.44013 | -75.70203 | 15483 ft | 353 kts | 107° |
| 2026-04-30 19:31 | 4.42542 | -75.65477 | 16623 ft | 358 kts | 107° |
| 2026-04-30 19:32 | 4.41791 | -75.63082 | 17161 ft | 361 kts | 107° |
| 2026-04-30 19:32 | 4.41033 | -75.60673 | 17704 ft | 364 kts | 107° |
| 2026-04-30 19:32 | 4.40285 | -75.58304 | 18225 ft | 366 kts | 107° |
| 2026-04-30 19:32 | 4.39531 | -75.55900 | 18682 ft | 368 kts | 107° |
| 2026-04-30 19:33 | 4.38817 | -75.53431 | 19141 ft | 371 kts | 101° |
| 2026-04-30 19:33 | 4.38567 | -75.50841 | 19584 ft | 375 kts | 89° |
| 2026-04-30 19:33 | 4.38885 | -75.48241 | 19889 ft | 379 kts | 77° |
| 2026-04-30 19:33 | 4.39770 | -75.45758 | 19968 ft | 376 kts | 64° |
| 2026-04-30 19:34 | 4.41028 | -75.43481 | 19978 ft | 373 kts | 62° |
| 2026-04-30 19:34 | 4.42298 | -75.41219 | 19973 ft | 372 kts | 62° |
| 2026-04-30 19:34 | 4.44822 | -75.36684 | 19976 ft | 372 kts | 63° |
| 2026-04-30 19:35 | 4.46060 | -75.34448 | 19948 ft | 372 kts | 63° |
| 2026-04-30 19:35 | 4.47311 | -75.32189 | 19946 ft | 371 kts | 63° |
| 2026-04-30 19:35 | 4.48563 | -75.29934 | 19939 ft | 372 kts | 63° |
| 2026-04-30 19:35 | 4.49823 | -75.27666 | 19935 ft | 371 kts | 63° |
| 2026-04-30 19:36 | 4.51080 | -75.25405 | 19933 ft | 371 kts | 62° |
| 2026-04-30 19:36 | 4.52327 | -75.23160 | 19930 ft | 371 kts | 63° |
| 2026-04-30 19:36 | 4.54840 | -75.18640 | 19917 ft | 371 kts | 63° |
| 2026-04-30 19:37 | 4.56079 | -75.16409 | 19920 ft | 371 kts | 63° |
| 2026-04-30 19:37 | 4.57333 | -75.14148 | 19925 ft | 372 kts | 63° |
| 2026-04-30 19:37 | 4.58592 | -75.11880 | 19927 ft | 371 kts | 63° |
| 2026-04-30 19:37 | 4.59850 | -75.09620 | 19928 ft | 372 kts | 62° |
| 2026-04-30 19:38 | 4.61109 | -75.07360 | 19933 ft | 372 kts | 62° |
| 2026-04-30 19:38 | 4.62367 | -75.05100 | 19911 ft | 372 kts | 63° |
| 2026-04-30 19:38 | 4.63627 | -75.02830 | 19904 ft | 372 kts | 63° |
| 2026-04-30 19:38 | 4.64881 | -75.00569 | 19902 ft | 372 kts | 63° |
| 2026-04-30 19:39 | 4.66127 | -74.98317 | 19893 ft | 372 kts | 63° |
| 2026-04-30 19:39 | 4.67384 | -74.96047 | 19897 ft | 372 kts | 63° |
| 2026-04-30 19:39 | 4.68624 | -74.93813 | 19816 ft | 364 kts | 63° |
| 2026-04-30 19:39 | 4.69807 | -74.91647 | 19568 ft | 355 kts | 66° |
| 2026-04-30 19:40 | 4.70825 | -74.89422 | 19344 ft | 349 kts | 68° |
| 2026-04-30 19:40 | 4.71792 | -74.87196 | 19128 ft | 347 kts | 69° |
| 2026-04-30 19:40 | 4.72733 | -74.84975 | 18903 ft | 346 kts | 69° |
| 2026-04-30 19:40 | 4.73668 | -74.82757 | 18680 ft | 344 kts | 69° |
| 2026-04-30 19:41 | 4.74596 | -74.80555 | 18460 ft | 343 kts | 69° |
| 2026-04-30 19:41 | 4.75531 | -74.78352 | 18199 ft | 342 kts | 69° |
| 2026-04-30 19:41 | 4.76465 | -74.76172 | 17952 ft | 341 kts | 68° |
| 2026-04-30 19:41 | 4.77392 | -74.74016 | 17700 ft | 338 kts | 68° |
| 2026-04-30 19:42 | 4.78314 | -74.71866 | 17342 ft | 334 kts | 69° |
| 2026-04-30 19:42 | 4.79228 | -74.69732 | 16933 ft | 333 kts | 69° |
| 2026-04-30 19:42 | 4.80137 | -74.67608 | 16523 ft | 331 kts | 69° |
| 2026-04-30 19:42 | 4.81044 | -74.65487 | 16113 ft | 330 kts | 70° |
| 2026-04-30 19:43 | 4.81945 | -74.63379 | 15734 ft | 329 kts | 69° |
| 2026-04-30 19:43 | 4.82847 | -74.61270 | 15323 ft | 328 kts | 69° |
| 2026-04-30 19:43 | 4.83746 | -74.59168 | 14921 ft | 327 kts | 69° |
| 2026-04-30 19:44 | 4.85523 | -74.55017 | 14186 ft | 323 kts | 70° |
| 2026-04-30 19:44 | 4.86408 | -74.52948 | 13745 ft | 324 kts | 70° |
| 2026-04-30 19:44 | 4.87291 | -74.50881 | 13370 ft | 320 kts | 69° |
| 2026-04-30 19:44 | 4.88167 | -74.48834 | 13042 ft | 317 kts | 69° |
| 2026-04-30 19:45 | 4.89019 | -74.46855 | 12916 ft | 306 kts | 69° |
| 2026-04-30 19:45 | 4.89848 | -74.44919 | 12796 ft | 296 kts | 72° |
| 2026-04-30 19:45 | 4.90236 | -74.42964 | 12678 ft | 281 kts | 93° |
| 2026-04-30 19:45 | 4.89853 | -74.41105 | 12654 ft | 266 kts | 114° |
| 2026-04-30 19:46 | 4.88884 | -74.39610 | 12675 ft | 250 kts | 134° |
| 2026-04-30 19:46 | 4.87589 | -74.38478 | 12707 ft | 246 kts | 139° |
| 2026-04-30 19:46 | 4.86351 | -74.37287 | 12739 ft | 244 kts | 129° |
| 2026-04-30 19:46 | 4.85336 | -74.35986 | 12758 ft | 231 kts | 127° |
| 2026-04-30 19:47 | 4.84413 | -74.34734 | 12827 ft | 217 kts | 125° |
| 2026-04-30 19:47 | 4.83841 | -74.33945 | 12835 ft | 203 kts | 125° |
| 2026-04-30 19:47 | 4.82819 | -74.32536 | 12849 ft | 177 kts | 125° |
| 2026-04-30 19:47 | 4.82104 | -74.31557 | 12859 ft | 172 kts | 126° |
| 2026-04-30 19:48 | 4.81395 | -74.30602 | 12882 ft | 170 kts | 126° |
| 2026-04-30 19:48 | 4.80686 | -74.29654 | 12894 ft | 170 kts | 126° |
| 2026-04-30 19:48 | 4.79973 | -74.28708 | 12909 ft | 170 kts | 126° |
| 2026-04-30 19:48 | 4.79264 | -74.27770 | 12924 ft | 168 kts | 126° |
| 2026-04-30 19:49 | 4.78549 | -74.26824 | 12724 ft | 173 kts | 126° |
| 2026-04-30 19:49 | 4.77081 | -74.24884 | 12143 ft | 175 kts | 126° |
| 2026-04-30 19:49 | 4.76347 | -74.23916 | 11828 ft | 175 kts | 127° |
| 2026-04-30 19:50 | 4.75574 | -74.22894 | 11153 ft | 198 kts | 127° |
| 2026-04-30 19:50 | 4.74697 | -74.21735 | 10388 ft | 215 kts | 126° |
| 2026-04-30 19:50 | 4.73811 | -74.20567 | 9862 ft | 204 kts | 126° |
| 2026-04-30 19:50 | 4.72984 | -74.19477 | 9389 ft | 194 kts | 127° |
| 2026-04-30 19:51 | 4.72200 | -74.18430 | 8943 ft | 181 kts | 128° |
| 2026-04-30 19:51 | 4.71468 | -74.17475 | 8543 ft | 166 kts | 128° |
| 2026-04-30 19:51 | 4.70798 | -74.16577 | 8378 ft | 155 kts | 128° |
| 2026-04-30 19:51 | 4.70226 | -74.15831 | 8363 ft | 111 kts | 128° |
| 2026-04-30 19:52 | 4.69873 | -74.15362 | 8366 ft | 61 kts | 127° |
| 2026-04-30 19:52 | 4.69759 | -74.15196 | 8365 ft | 23 kts | 116° |
| 2026-04-30 19:52 | 4.69713 | -74.15050 | 8364 ft | 22 kts | 98° |
| 2026-04-30 19:52 | 4.69723 | -74.14935 | 8365 ft | 12 kts | 47° |
| 2026-04-30 19:53 | 4.69790 | -74.14882 | 8366 ft | 12 kts | 38° |
| 2026-04-30 19:53 | 4.69853 | -74.14834 | 8366 ft | 11 kts | 37° |
| 2026-04-30 19:53 | 4.69908 | -74.14793 | 8366 ft | 10 kts | 37° |
| 2026-04-30 19:53 | 4.69964 | -74.14750 | 8366 ft | 10 kts | 37° |
| 2026-04-30 19:54 | 4.70014 | -74.14713 | 8366 ft | 9 kts | 36° |
| 2026-04-30 19:54 | 4.70091 | -74.14657 | 8366 ft | 18 kts | 36° |
| 2026-04-30 19:54 | 4.70211 | -74.14571 | 8366 ft | 16 kts | 47° |
| 2026-04-30 19:54 | 4.70270 | -74.14519 | 8366 ft | 9 kts | 36° |
| 2026-04-30 19:55 | 4.70316 | -74.14485 | 8366 ft | 7 kts | 36° |
| 2026-04-30 19:55 | 4.70349 | -74.14460 | 8366 ft | 5 kts | 36° |
| 2026-04-30 19:55 | 4.70390 | -74.14430 | 8366 ft | 7 kts | 36° |
| 2026-04-30 19:55 | 4.70424 | -74.14405 | 8366 ft | 8 kts | 37° |
| 2026-04-30 19:56 | 4.70432 | -74.14335 | 8367 ft | 13 kts | 125° |
| 2026-04-30 19:56 | 4.70378 | -74.14263 | 8366 ft | 13 kts | 127° |
| 2026-04-30 19:56 | 4.70320 | -74.14187 | 8366 ft | 14 kts | 129° |
| 2026-04-30 19:56 | 4.70262 | -74.14111 | 8366 ft | 14 kts | 127° |
| 2026-04-30 19:57 | 4.70206 | -74.14036 | 8366 ft | 14 kts | 127° |
| 2026-04-30 19:57 | 4.70152 | -74.13975 | 8365 ft | 11 kts | 153° |
| 2026-04-30 19:57 | 4.70088 | -74.14003 | 8366 ft | 11 kts | 217° |
| 2026-04-30 19:57 | 4.70029 | -74.14026 | 8366 ft | 6 kts | 167° |
| 2026-04-30 19:58 | 4.69995 | -74.13992 | 8366 ft | 7 kts | 130° |
| 2026-04-30 19:58 | 4.69959 | -74.13953 | 8366 ft | 6 kts | 158° |
| 2026-04-30 19:58 | 4.69935 | -74.13981 | 8366 ft | 5 kts | 241° |
| 2026-04-30 19:58 | 4.69909 | -74.14003 | 8366 ft | 8 kts | 216° |
| 2026-04-30 19:59 | 4.69895 | -74.14013 | 8366 ft | 1 kts | 215° |
| 2026-04-30 19:59 | 4.69892 | -74.14016 | 8366 ft | 0 kts | 216° |
| 2026-04-30 19:59 | 4.69890 | -74.14017 | 8366 ft | 0 kts | 216° |